Latest Coastal Weather Observations for Flinders Island Airport

IDV60701

Issued at 6:11 am EST Thursday 30 July 2015 (issued every 10 minutes, with the page automatically refreshed every 10 minutes)

About coastal observations | Map of coastal stations | Coastal observations for VIC | Marine services | Other Formats
Station Details ID: 099005 Name: FLINDERS ISLAND AIRPORT Lat: -40.09 Lon: 148.00 Height: 9.0 m
Data from the previous 72 hours. | See also: Recent months at Flinders Island Airport
Date/Time
EST
Temp

°C
Wind Pressure Rain
since 9am
mm
Weather Cloud Vis
km
Sea
Height
m
Swell
Dir
 
Speed
knots
Gust
knots
hPa Trend Height
m
Period
s
Dir
30/06:00am 10.5 NW 11 16 1020.8 - 0.0 - Cloudy 10 - - - -
30/05:30am 10.4 NW 10 16 1021.1 - 0.0 - Cloudy 10 - - - -
30/05:00am 9.5 NNW 8 12 1021.6 - 0.0 - Partly cloudy 10 - - - -
30/04:30am 9.6 NW 7 10 1022.0 - 0.0 - Partly cloudy 10 - - - -
30/04:00am 9.9 NNW 10 15 1022.0 - 0.0 - Cloudy 10 - - - -
30/03:30am 10.5 NW 12 17 1022.4 - 0.0 - Cloudy 10 - - - -
30/03:00am 10.8 NW 11 16 1023.0 - 0.0 - Cloudy 10 - - - -
30/02:30am 11.0 NW 14 19 1023.6 - 0.0 - Cloudy 10 - - - -
30/02:00am 11.2 NW 13 18 1023.9 - 0.0 - Cloudy 10 - - - -
30/01:30am 11.0 NW 15 22 1024.2 - 0.0 - Cloudy 10 - - - -
30/01:00am 10.9 NW 16 21 1024.6 - 0.0 - Partly cloudy 10 - - - -
30/12:30am 10.7 NW 10 16 1024.8 - 0.0 - Partly cloudy 10 - - - -
30/12:00am 10.8 WNW 13 18 1025.3 - 0.0 - Cloudy 10 - - - -
 
Date/Time
EST
Temp

°C
Wind Pressure Rain
since 9am
mm
Weather Cloud Vis
km
Sea
Height
m
Swell
Dir
 
Speed
knots
Gust
knots
hPa Trend Height
m
Period
s
Dir
29/11:30pm 10.6 NW 11 15 1025.6 - 0.0 - Partly cloudy 10 - - - -
29/11:00pm 10.1 NW 6 8 1025.9 - 0.0 - Partly cloudy 10 - - - -
29/10:30pm 10.3 NW 9 12 1026.2 - 0.0 - Partly cloudy 10 - - - -
29/10:00pm 10.2 NNW 6 9 1026.4 - 0.0 - Partly cloudy 10 - - - -
29/09:30pm 9.7 NW 7 8 1026.5 - 0.0 - Partly cloudy 10 - - - -
29/09:00pm 9.6 NW 8 11 1026.7 - 0.0 - Mostly cloudy 10 - - - -
29/08:30pm 9.6 WNW 9 11 1026.7 - 0.0 - - 10 - - - -
29/08:00pm 10.1 NW 8 9 1026.8 - 0.0 - - 10 - - - -
29/07:30pm 10.4 NW 10 13 1026.8 - 0.0 - - 10 - - - -
29/07:00pm 10.5 NW 8 11 1026.8 - 0.0 - - 10 - - - -
29/06:30pm 10.7 WNW 12 16 1026.9 - 0.0 - - 10 - - - -
29/06:00pm 10.5 WNW 9 13 1026.8 - 0.0 - Cloudy 10 - - - -
29/05:30pm 10.8 WNW 11 16 1026.8 - 0.0 - - 10 - - - -
29/05:00pm 11.1 WNW 14 18 1027.0 - 0.0 - Partly cloudy 10 - - - -
29/04:30pm 11.4 WNW 13 17 1027.2 - 0.0 - Cloudy 10 - - - -
29/04:00pm 11.5 WNW 11 15 1027.4 - 0.0 - Partly cloudy 10 - - - -
29/03:30pm 11.8 WNW 13 18 1027.5 - 0.0 - Partly cloudy 10 - - - -
29/03:00pm 12.1 WNW 13 17 1027.7 - 0.0 - Cloudy 10 - - - -
29/02:30pm 12.6 WNW 14 19 1027.7 - 0.0 - Partly cloudy 10 - - - -
29/02:00pm 11.8 WNW 11 15 1028.0 - 0.0 - Partly cloudy 10 - - - -
29/01:30pm 12.6 WNW 12 16 1028.5 - 0.0 - Partly cloudy 10 - - - -
29/01:00pm 12.2 WNW 13 16 1028.9 - 0.0 - Cloudy 10 - - - -
29/12:30pm 12.5 WNW 14 18 1029.2 - 0.0 - Partly cloudy 10 - - - -
29/12:00pm 12.2 WNW 15 20 1029.8 - 0.0 - Partly cloudy 10 - - - -
29/11:30am 12.7 WNW 14 17 1030.1 - 0.0 - - 10 - - - -
29/11:00am 12.4 WNW 12 15 1030.7 - 0.0 - - 10 - - - -
29/10:30am 12.4 W 12 15 1030.9 - 0.0 - - 10 - - - -
29/10:00am 12.3 W 13 16 1031.2 - 0.0 - - 10 - - - -
29/09:30am 11.6 WNW 11 15 1031.2 - 0.0 - - 10 - - - -
29/09:00am 11.2 WNW 10 15 1031.2 - 0.0 - - 10 - - - -
29/08:30am 10.6 WNW 8 12 1031.1 - 0.0 - - 10 - - - -
29/08:00am 10.4 WNW 13 16 1031.2 - 0.0 - Partly cloudy 10 - - - -
29/07:30am 9.8 WNW 10 14 1031.2 - 0.0 - Partly cloudy 10 - - - -
29/07:00am 9.3 W 8 10 1031.0 - 0.0 - Partly cloudy 10 - - - -
29/06:30am 9.7 W 9 11 1030.8 - 0.0 - Partly cloudy 10 - - - -
29/06:00am 10.1 W 11 15 1030.4 - 0.0 - Mostly cloudy 10 - - - -
29/05:58am 10.1 W 11 15 1030.5 - 0.0 - Partly cloudy 10 - - - -
29/05:42am 10.2 W 12 14 1030.3 - 0.0 - Partly cloudy 10 - - - -
29/05:39am 10.2 W 12 14 1030.3 - 0.0 - Partly cloudy 10 - - - -
29/05:30am 10.1 W 12 17 1030.3 - 0.0 - Partly cloudy 10 - - - -
29/05:13am 9.9 W 9 12 1030.2 - 0.0 - Partly cloudy 10 - - - -
29/05:00am 9.6 W 8 9 1030.2 - 0.0 - Partly cloudy 10 - - - -
29/04:30am 10.0 W 9 14 1030.2 - 0.0 - Partly cloudy 10 - - - -
29/04:17am 10.1 W 11 14 1030.3 - 0.0 - Partly cloudy 10 - - - -
29/04:00am 10.4 W 10 12 1030.4 - 0.0 - Partly cloudy 10 - - - -
29/03:32am 10.2 WNW 11 14 1030.4 - 0.0 - Partly cloudy 10 - - - -
29/03:30am 10.1 WNW 10 14 1030.4 - 0.0 - Partly cloudy 10 - - - -
29/03:00am 10.0 W 11 15 1030.1 - 0.0 - - 10 - - - -
29/02:30am 10.2 W 12 15 1030.4 - 0.0 - Partly cloudy 10 - - - -
29/02:00am 10.2 W 11 15 1030.6 - 0.0 - - 10 - - - -
29/01:30am 10.4 W 15 19 1030.6 - 0.0 - - 10 - - - -
29/01:00am 10.6 W 17 22 1030.3 - 0.0 - - 10 - - - -
29/12:30am 10.7 W 16 21 1030.6 - 0.0 - Partly cloudy 10 - - - -
29/12:00am 10.7 W 16 20 1030.8 - 0.0 - - 10 - - - -
 
Date/Time
EST
Temp

°C
Wind Pressure Rain
since 9am
mm
Weather Cloud Vis
km
Sea
Height
m
Swell
Dir
 
Speed
knots
Gust
knots
hPa Trend Height
m
Period
s
Dir
28/11:30pm 10.8 WSW 19 23 1030.6 - 0.0 - - 10 - - - -
28/11:00pm 10.8 WSW 19 24 1030.4 - 0.0 - Partly cloudy 10 - - - -
28/10:49pm 10.9 WSW 19 21 1030.4 - 0.0 - Partly cloudy 10 - - - -
28/10:34pm 11.1 W 18 22 1030.5 - 0.0 - Partly cloudy 10 - - - -
28/10:30pm 11.1 W 18 21 1030.5 - 0.0 - Partly cloudy 10 - - - -
28/10:00pm 11.0 W 18 22 1030.5 - 0.0 - - 10 - - - -
28/09:30pm 10.9 W 15 19 1030.7 - 0.0 - Partly cloudy 10 - - - -
28/09:04pm 11.0 W 15 20 1030.6 - 0.0 - Partly cloudy 10 - - - -
28/09:00pm 11.1 W 15 19 1030.6 - 0.0 - Cloudy 10 - - - -
28/08:40pm 11.2 W 15 19 1030.8 - 0.0 - Partly cloudy 10 - - - -
28/08:30pm 11.1 W 15 19 1030.8 - 0.0 - Partly cloudy 10 - - - -
28/08:00pm 11.1 W 16 21 1030.5 - 0.0 - Partly cloudy 10 - - - -
28/07:30pm 11.2 W 15 18 1030.6 - 0.0 - Cloudy 10 - - - -
28/07:00pm 11.4 W 16 22 1030.4 - 0.0 - Partly cloudy 10 - - - -
28/06:40pm 11.3 W 15 21 1030.3 - 0.0 - Partly cloudy 10 - - - -
28/06:30pm 11.3 W 16 22 1030.1 - 0.0 - Partly cloudy 10 - - - -
28/06:21pm 11.3 W 15 20 1030.1 - 0.0 - Partly cloudy 10 - - - -
28/06:00pm 11.4 W 16 21 1030.0 - 0.0 - Mostly cloudy 10 - - - -
28/05:30pm 11.3 W 18 24 1029.5 - 0.0 - Partly cloudy 10 - - - -
28/05:00pm 11.5 W 18 23 1029.1 - 0.0 - Partly cloudy 10 - - - -
28/04:30pm 11.7 W 17 22 1028.9 - 0.0 - Partly cloudy 10 - - - -
28/04:01pm 12.2 W 18 22 1029.0 - 0.0 - Partly cloudy 10 - - - -
28/04:00pm 12.2 W 18 23 1029.1 - 0.0 - Partly cloudy 10 - - - -
28/03:30pm 12.2 W 22 27 1028.9 - 0.0 - Cloudy 10 - - - -
28/03:00pm 12.5 W 19 25 1028.8 - 0.0 - Cloudy 10 - - - -
28/02:30pm 12.7 W 21 28 1028.4 - 0.0 - Partly cloudy 10 - - - -
28/02:15pm 12.5 W 23 30 1028.3 - 0.0 - Partly cloudy 10 - - - -
28/02:00pm 12.8 W 20 26 1028.5 - 0.0 - Partly cloudy 10 - - - -
28/01:46pm 13.0 W 21 26 1028.5 - 0.0 - Partly cloudy 10 - - - -
28/01:35pm 12.5 W 22 27 1028.5 - 0.0 - Partly cloudy 10 - - - -
28/01:30pm 12.8 W 22 27 1028.5 - 0.0 - Partly cloudy 10 - - - -
28/01:00pm 12.8 W 20 24 1028.8 - 0.0 - Partly cloudy 10 - - - -
28/12:30pm 12.3 W 20 24 1029.2 - 0.0 - Partly cloudy 10 - - - -
28/12:18pm 12.5 W 19 23 1029.2 - 0.0 - Partly cloudy 10 - - - -
28/12:00pm 12.8 W 19 24 1029.4 - 0.0 - Cloudy 10 - - - -
28/11:30am 12.2 W 21 26 1029.5 - 0.0 - Partly cloudy 10 - - - -
28/11:00am 12.2 W 19 25 1029.6 - 0.0 - Partly cloudy 10 - - - -
28/10:30am 12.1 WSW 18 23 1029.6 - 0.0 - - 10 - - - -
28/10:00am 11.2 W 21 26 1029.2 - 0.0 - - 10 - - - -
28/09:30am 11.2 WSW 23 28 1028.7 - 0.0 - - 10 - - - -
28/09:00am 11.4 WSW 21 27 1028.5 - 0.0 - - 10 - - - -
28/08:30am 11.1 W 21 25 1028.2 - 0.0 - - 10 - - - -
28/08:00am 11.0 W 23 28 1027.6 - 0.0 - - 10 - - - -
28/07:30am 10.9 W 21 26 1027.4 - 0.0 - Partly cloudy 10 - - - -
28/07:00am 10.9 W 24 28 1027.2 - 0.0 - Partly cloudy 10 - - - -
28/06:30am 10.7 W 21 26 1027.0 - 0.0 - - 10 - - - -
28/06:00am 10.7 WSW 21 26 1026.8 - 0.0 - Partly cloudy 10 - - - -
28/05:30am 10.7 W 18 22 1026.5 - 0.0 - Partly cloudy 10 - - - -
28/05:00am 10.6 W 19 22 1026.4 - 0.0 - - 10 - - - -
28/04:30am 10.6 W 22 27 1025.8 - 0.0 - Partly cloudy 10 - - - -
28/04:00am 10.6 WSW 22 27 1025.4 - 0.0 - - 10 - - - -
28/03:30am 10.5 WSW 21 27 1025.1 - 0.0 - - 10 - - - -
28/03:00am 10.5 WSW 21 28 1025.0 - 0.0 - - 10 - - - -
28/02:30am 10.4 WSW 21 27 1024.9 - 0.0 - - 10 - - - -
28/02:00am 10.5 WSW 18 21 1024.9 - 0.0 - - 10 - - - -
28/01:30am 10.5 WSW 18 23 1024.4 - 0.0 - - 10 - - - -
28/01:00am 10.6 WSW 19 26 1024.0 - 0.0 - Partly cloudy 10 - - - -
28/12:30am 10.6 WSW 18 22 1023.8 - 0.0 - Partly cloudy 10 - - - -
28/12:00am 10.7 WSW 19 22 1023.9 - 0.0 - Mostly clear 10 - - - -
 
Date/Time
EST
Temp

°C
Wind Pressure Rain
since 9am
mm
Weather Cloud Vis
km
Sea
Height
m
Swell
Dir
 
Speed
knots
Gust
knots
hPa Trend Height
m
Period
s
Dir
27/11:46pm 10.7 WSW 20 25 1024.0 - 0.0 - Partly cloudy 10 - - - -
27/11:30pm 10.9 W 19 24 1024.0 - 0.0 - Partly cloudy 10 - - - -
27/11:10pm 11.1 W 18 21 1024.0 - 0.0 - Partly cloudy 10 - - - -
27/11:00pm 10.9 WSW 19 25 1024.0 - 0.0 - Partly cloudy 10 - - - -
27/10:45pm 10.9 W 19 24 1024.0 - 0.0 - Partly cloudy 10 - - - -
27/10:30pm 11.0 W 20 26 1023.9 - 0.0 - Partly cloudy 10 - - - -
27/10:19pm 11.0 W 19 26 1023.9 - 0.0 - Partly cloudy 10 - - - -
27/10:00pm 10.9 WSW 22 28 1024.0 - 0.0 - Partly cloudy 10 - - - -
27/09:57pm 10.8 WSW 21 28 1023.9 - 0.0 - Partly cloudy 10 - - - -
27/09:33pm 10.8 WSW 22 27 1023.9 - 0.0 - Partly cloudy 10 - - - -
27/09:30pm 10.9 WSW 23 27 1024.0 - 0.0 - Partly cloudy 10 - - - -
27/09:29pm 10.9 WSW 23 27 1024.0 - 0.0 - Partly cloudy 10 - - - -
27/09:19pm 10.8 WSW 22 28 1024.1 - 0.0 - Partly cloudy 10 - - - -
27/09:00pm 10.8 WSW 21 26 1023.8 - 0.0 - Partly cloudy 10 - - - -
27/08:30pm 10.7 WSW 23 29 1023.6 - 0.0 - Partly cloudy 10 - - - -
27/08:00pm 10.6 WSW 23 28 1023.3 - 0.0 - - 10 - - - -
27/07:30pm 10.8 WSW 23 27 1023.0 - 0.0 - Partly cloudy 10 - - - -
27/07:00pm 10.9 WSW 24 30 1022.7 - 0.0 - Partly cloudy 10 - - - -
27/06:30pm 10.9 WSW 24 30 1022.4 - 0.0 - Partly cloudy 10 - - - -
27/06:00pm 10.8 WSW 25 30 1021.9 - 0.0 - - 10 - - - -
27/05:30pm 10.9 WSW 23 29 1021.5 - 0.0 - - 10 - - - -
27/05:00pm 10.9 W 26 32 1021.2 - 0.0 - - 10 - - - -
27/04:30pm 11.3 W 25 30 1020.8 - 0.0 - - 10 - - - -
27/04:00pm 11.4 WSW 26 31 1020.6 - 0.0 - - 10 - - - -
27/03:30pm 11.6 WSW 28 33 1020.3 - 0.0 - Partly cloudy 10 - - - -
27/03:00pm 11.6 WSW 31 39 1019.8 - 0.0 - - 10 - - - -
27/02:30pm 12.0 WSW 31 39 1019.4 - 0.0 - Partly cloudy 10 - - - -
27/02:00pm 11.9 WSW 32 41 1019.1 - 0.0 - Partly cloudy 10 - - - -
27/01:30pm 11.6 W 28 36 1019.0 - 0.0 - Partly cloudy 10 - - - -
27/01:00pm 11.7 WSW 31 39 1019.3 - 0.0 - Partly cloudy 10 - - - -
27/12:30pm 11.5 W 30 37 1019.6 - 0.0 - Partly cloudy 10 - - - -
27/12:00pm 11.6 WSW 29 36 1019.9 - 0.0 - Cloudy 10 - - - -
27/11:30am 11.1 WSW 29 34 1020.0 - 0.0 - Partly cloudy 10 - - - -
27/11:00am 11.0 WSW 27 33 1020.4 - 0.0 - Partly cloudy 10 - - - -
27/10:30am 10.6 WSW 28 33 1020.1 - 0.0 - - 10 - - - -
27/10:00am 10.3 WSW 26 31 1019.9 - 0.0 - Partly cloudy 10 - - - -
27/09:30am 10.0 WSW 30 37 1019.4 - 0.0 - - 10 - - - -
27/09:00am 9.6 WSW 29 37 1018.6 - 3.2 - - 10 - - - -
27/08:30am 9.2 WSW 32 40 1018.0 - 3.2 - - 10 - - - -
27/08:00am 8.9 WSW 31 37 1017.4 - 3.2 - - 10 - - - -
27/07:30am 8.5 WSW 31 37 1017.2 - 3.2 - Partly cloudy 10 - - - -
27/07:00am 8.6 WSW 31 40 1016.5 - 3.2 - - 10 - - - -
27/06:30am 8.4 WSW 30 40 1016.2 - 3.2 - Partly cloudy 10 - - - -
27/06:27am 8.5 WSW 29 40 1016.1 - 3.2 - Partly cloudy 10 - - - -

Other Formats:

Comma delimited format used in spreadsheet applications
http://www.bom.gov.au/fwo/IDV60701/IDV60701.94980.axf

JavaScript Object Notation format (JSON) in row-major order
http://www.bom.gov.au/fwo/IDV60701/IDV60701.94980.json